Latest Weather Observations for Strathalbyn

IDS60901

Issued at 6:21 pm CDT Thursday 8 December 2016 (issued every 10 minutes, with the page automatically refreshed every 10 minutes)

About weather observations | Map of Adelaide area stations | Latest observations for Adelaide area | Other Formats
Station Details ID: 024580 Name: STRATHALBYN RACECOURSE Lat: -35.28 Lon: 138.89 Height: 58.0 m
Data from the previous 72 hours. | See also: Recent months at Strathalbyn
Date/Time
CDT
Temp
°C
App
Temp
°C
Dew
Point
°C
Rel
Hum
%
Delta-T
°C
Wind Press
QNH
hPa
Press
MSL
hPa
Rain since
9am
mm
Dir  Spd
km/h
Gust
km/h
Spd
kts
Gust
kts
08/06:06pm 14.2 7.3 8.8 70 2.7 SW 35 54 19 29 1012.1 1011.9 1.0
08/06:00pm 14.8 6.7 7.1 60 3.8 SW 39 54 21 29 1011.8 1011.6 1.0
08/05:30pm 17.5 8.5 7.3 51 5.1 SSW 44 56 24 30 - - 1.0
08/05:01pm 17.5 9.7 8.1 54 4.8 SW 39 61 21 33 1010.6 1010.4 1.0
08/05:00pm 17.6 10.0 9.0 57 4.5 SW 39 54 21 29 1010.5 1010.3 1.0
08/04:38pm 18.2 10.5 7.3 49 5.5 SW 37 56 20 30 1010.2 1010.0 1.0
08/04:30pm 18.3 10.7 7.7 50 5.4 SW 37 50 20 27 1010.0 1009.8 1.0
08/04:17pm 17.8 10.3 7.8 52 5.1 SW 37 57 20 31 1010.0 1009.8 1.0
08/04:00pm 17.5 10.9 8.4 55 4.7 SW 33 50 18 27 1009.9 1009.7 1.0
08/03:37pm 17.2 11.3 8.9 58 4.3 SW 30 48 16 26 1009.9 1009.7 1.0
08/03:30pm 15.5 8.9 8.5 63 3.6 WSW 33 48 18 26 1010.0 1009.8 1.0
08/03:26pm 16.2 9.9 7.2 55 4.5 SW 30 48 16 26 1010.0 1009.8 1.0
08/03:00pm 15.9 11.4 11.3 74 2.5 SW 26 39 14 21 1009.7 1009.5 1.0
08/02:44pm 17.1 12.0 10.5 65 3.5 SW 28 48 15 26 1009.6 1009.4 1.0
08/02:30pm 15.0 10.7 10.6 75 2.3 SW 24 44 13 24 1009.7 1009.5 1.0
08/02:17pm 15.4 8.9 9.1 66 3.2 SW 33 52 18 28 1009.7 1009.5 0.4
08/02:00pm 16.9 10.6 8.8 59 4.2 SW 32 50 17 27 1009.4 1009.2 0.0
08/01:55pm 18.8 12.0 7.6 48 5.7 WSW 33 52 18 28 1009.4 1009.2 0.0
08/01:30pm 17.9 9.9 7.3 50 5.4 W 39 59 21 32 1009.1 1008.9 0.0
08/01:00pm 20.1 12.7 6.8 42 6.7 W 35 54 19 29 1008.6 1008.4 0.0
08/12:40pm 19.1 12.0 8.1 49 5.7 W 35 54 19 29 1008.5 1008.3 0.0
08/12:30pm 18.8 10.4 7.3 47 5.8 W 41 54 22 29 1008.4 1008.2 0.0
08/12:00pm 17.0 10.8 9.4 61 4.0 W 32 52 17 28 1008.1 1007.9 0.0
08/11:42am 16.7 10.2 8.9 60 4.0 WSW 33 67 18 36 1007.9 1007.7 0.0
08/11:30am 18.2 11.1 6.4 46 5.9 WSW 33 48 18 26 1007.6 1007.4 0.0
08/11:00am 18.7 10.1 6.5 45 6.1 W 41 59 22 32 1007.4 1007.2 0.0
08/10:30am 18.1 10.1 5.7 44 6.1 WSW 37 57 20 31 1007.1 1006.9 0.0
08/10:00am 18.1 10.6 6.3 46 5.8 WSW 35 56 19 30 1006.6 1006.4 0.0
08/09:30am 17.8 9.8 5.7 45 5.9 WSW 37 59 20 32 1006.4 1006.2 0.0
08/09:00am 17.4 9.9 6.3 48 5.5 WSW 35 54 19 29 1006.3 1006.1 6.8
08/08:30am 16.4 7.2 5.4 48 5.3 WSW 43 65 23 35 1005.6 1005.4 6.8
08/08:10am 16.3 8.6 7.0 54 4.6 WSW 37 57 20 31 1005.6 1005.4 6.8
08/08:00am 16.0 8.2 6.7 54 4.6 WSW 37 54 20 29 1005.5 1005.3 6.8
08/07:34am 15.8 9.2 7.6 58 4.1 W 32 50 17 27 1005.0 1004.8 6.8
08/07:30am 15.8 9.5 7.3 57 4.2 W 30 46 16 25 1005.0 1004.8 6.8
08/07:03am 15.3 9.4 7.6 60 3.8 WSW 28 46 15 25 1004.7 1004.5 6.8
08/07:00am 15.2 10.5 7.7 61 3.7 WSW 22 39 12 21 1004.7 1004.5 6.8
08/06:30am 14.6 9.1 7.4 62 3.6 WSW 26 44 14 24 1004.2 1004.0 6.8
08/06:00am 14.3 10.0 8.0 66 3.2 WSW 20 32 11 17 1003.7 1003.5 6.8
08/05:30am 14.6 10.4 8.3 66 3.2 WSW 20 32 11 17 1003.1 1002.9 6.8
08/05:00am 15.3 10.0 9.7 69 2.9 WSW 28 50 15 27 1002.5 1002.3 6.8
08/04:30am 16.0 10.2 11.6 75 2.4 W 33 56 18 30 1001.5 1001.4 6.8
08/04:00am 16.8 10.1 12.3 75 2.5 W 39 63 21 34 1000.5 1000.4 6.8
08/03:30am 17.3 10.0 12.8 75 2.5 W 43 63 23 34 1000.0 999.9 6.8
08/03:00am 17.5 12.0 14.6 83 1.7 W 37 57 20 31 1000.3 1000.2 6.8
08/02:44am 18.8 14.5 14.5 76 2.5 W 30 48 16 26 999.8 999.7 6.2
08/02:30am 19.7 15.3 15.1 75 2.7 WNW 32 43 17 23 999.8 999.7 6.2
08/02:08am 20.3 16.8 16.5 79 2.3 NW 30 48 16 26 999.1 999.0 6.2
08/02:00am 20.3 15.9 16.7 80 2.2 NW 35 48 19 26 998.9 998.8 6.2
08/01:30am 20.5 16.9 17.1 81 2.1 NW 32 46 17 25 999.7 999.6 4.8
08/01:00am 20.5 17.6 17.1 81 2.1 WNW 28 43 15 23 1000.2 1000.1 2.2
08/12:30am 21.6 18.8 16.3 72 3.2 WNW 26 41 14 22 999.1 999.0 1.2
08/12:12am 23.2 19.3 15.5 62 4.6 NW 30 54 16 29 1000.0 999.9 0.6
08/12:10am 23.6 20.3 15.1 59 5.1 NW 26 41 14 22 999.7 999.6 0.4
08/12:00am 24.6 22.3 14.7 54 5.9 N 20 28 11 15 997.5 997.4 0.4
 
Date/Time
CDT
Temp
°C
App
Temp
°C
Dew
Point
°C
Rel
Hum
%
Delta-T
°C
Wind Press
QNH
hPa
Press
MSL
hPa
Rain since
9am
mm
Dir  Spd
km/h
Gust
km/h
Spd
kts
Gust
kts
07/11:30pm 23.2 21.8 15.5 62 4.7 NNE 17 26 9 14 997.5 997.4 0.4
07/11:00pm 22.6 21.3 15.9 66 4.0 N 17 22 9 12 998.9 998.8 0.4
07/10:38pm 22.8 20.1 15.6 64 4.3 WNW 24 54 13 29 1000.6 1000.5 0.4
07/10:37pm 23.5 21.1 15.5 60 4.8 W 22 54 12 29 1001.0 1000.9 0.2
07/10:30pm 24.3 21.8 15.2 57 5.5 SW 22 32 12 17 1000.7 1000.6 0.0
07/10:00pm 22.9 23.6 16.0 65 4.2 N 7 9 4 5 999.2 999.1 0.0
07/09:30pm 23.2 23.3 14.5 58 5.2 N 7 9 4 5 999.8 999.7 0.0
07/09:00pm 23.2 22.7 13.7 55 5.6 NNW 9 9 5 5 1000.5 1000.4 0.0
07/08:30pm 24.9 24.5 13.1 48 6.9 N 7 9 4 5 1001.3 1001.2 0.0
07/08:00pm 27.0 26.1 12.6 41 8.4 N 9 15 5 8 1001.6 1001.5 0.0
07/07:30pm 28.5 26.0 12.4 37 9.5 N 17 24 9 13 1002.2 1002.0 0.0
07/07:00pm 29.0 26.9 12.4 36 9.7 N 15 28 8 15 1002.8 1002.6 0.0
07/06:30pm 29.3 26.4 12.3 35 10.0 N 19 28 10 15 1003.1 1002.9 0.0
07/06:00pm 28.9 26.2 12.8 37 9.5 NNE 19 26 10 14 1003.6 1003.4 0.0
07/05:30pm 27.9 25.1 12.7 39 8.9 NNW 19 28 10 15 1004.6 1004.4 0.0
07/05:00pm 28.3 25.3 12.6 38 9.2 NNW 20 30 11 16 1005.4 1005.2 0.0
07/04:30pm 27.4 24.3 13.4 42 8.3 NW 22 37 12 20 1006.3 1006.1 0.0
07/04:00pm 27.5 22.5 12.3 39 8.8 NW 30 39 16 21 1006.9 1006.7 0.0
07/03:37pm 28.4 22.5 11.0 34 9.9 NW 33 52 18 28 1007.0 1006.8 0.0
07/03:30pm 29.2 23.0 11.3 33 10.3 NW 35 52 19 28 1007.1 1006.9 0.0
07/03:27pm 29.8 24.1 11.3 32 10.7 NW 32 50 17 27 1007.0 1006.8 0.0
07/03:00pm 29.9 26.5 11.4 32 10.7 NNW 20 30 11 16 1007.5 1007.3 0.0
07/02:30pm 27.9 22.8 9.2 31 10.4 NW 26 37 14 20 1008.3 1008.1 0.0
07/02:00pm 29.2 23.0 9.3 29 11.1 NNW 32 44 17 24 1008.6 1008.4 0.0
07/01:33pm 30.1 25.0 10.6 30 11.2 NNW 28 46 15 25 1009.1 1008.9 0.0
07/01:30pm 29.9 25.2 10.5 30 11.1 NNW 26 46 14 25 1009.0 1008.8 0.0
07/01:05pm 29.1 24.0 10.7 32 10.5 NW 28 46 15 25 1009.7 1009.5 0.0
07/01:00pm 28.8 23.3 10.5 32 10.4 NW 30 46 16 25 1009.8 1009.6 0.0
07/12:30pm 28.8 23.4 9.5 30 10.8 NNW 28 39 15 21 1010.5 1010.3 0.0
07/12:00pm 28.2 24.3 9.5 31 10.4 ENE 20 26 11 14 1011.1 1010.9 0.0
07/11:30am 25.1 20.7 7.3 32 9.4 ENE 20 28 11 15 1011.9 1011.7 0.0
07/11:00am 23.3 18.9 7.4 36 8.3 NE 20 26 11 14 1012.7 1012.6 0.0
07/10:30am 22.1 17.6 7.1 38 7.7 NE 20 32 11 17 1013.2 1013.1 0.0
07/10:00am 20.7 16.5 7.3 42 6.9 NE 19 26 10 14 1013.7 1013.6 0.0
07/09:30am 19.0 14.6 7.4 47 5.9 NNE 20 26 11 14 1014.1 1014.0 0.0
07/09:00am 17.6 13.2 7.6 52 5.1 NE 20 28 11 15 1014.6 1014.5 0.0
07/08:30am 16.1 11.8 7.8 58 4.2 NNE 20 24 11 13 1014.7 1014.6 0.0
07/08:00am 15.2 11.1 8.0 62 3.6 NE 19 26 10 14 1014.9 1014.8 0.0
07/07:30am 13.9 11.6 8.9 72 2.5 N 11 15 6 8 1014.9 1014.8 0.0
07/07:00am 11.2 8.7 8.1 81 1.5 N 11 13 6 7 1014.7 1014.6 0.0
07/06:30am 9.2 6.1 7.2 87 0.9 NNW 13 15 7 8 1014.7 1014.6 0.0
07/06:00am 8.6 6.1 6.6 87 0.9 NNW 9 11 5 6 1014.7 1014.6 0.0
07/05:30am 8.6 5.7 6.6 87 0.9 NNW 11 15 6 8 1014.5 1014.4 0.0
07/05:00am 8.5 6.0 6.5 87 0.9 NNW 9 13 5 7 1014.3 1014.2 0.0
07/04:30am 8.1 5.5 6.1 87 0.9 NNW 9 11 5 6 1014.4 1014.3 0.0
07/04:00am 8.2 5.2 6.2 87 0.9 NNW 11 13 6 7 1014.2 1014.1 0.0
07/03:30am 8.5 4.8 6.3 86 1.0 NNW 15 17 8 9 1014.2 1014.1 0.0
07/03:00am 8.7 5.8 6.5 86 1.0 NNW 11 13 6 7 1014.3 1014.2 0.0
07/02:30am 9.2 5.6 6.6 84 1.2 NW 15 17 8 9 1014.8 1014.7 0.0
07/02:00am 9.0 5.3 6.4 84 1.2 NNW 15 17 8 9 1015.1 1015.0 0.0
07/01:30am 9.0 5.4 6.6 85 1.1 NNW 15 17 8 9 1015.5 1015.4 0.0
07/01:00am 9.1 6.2 6.7 85 1.1 NNW 11 15 6 8 1015.7 1015.6 0.0
07/12:30am 9.2 5.9 6.6 84 1.2 NNW 13 13 7 7 1016.0 1015.9 0.0
07/12:00am 9.7 6.9 7.0 83 1.3 NW 11 13 6 7 1016.2 1016.1 0.0
 
Date/Time
CDT
Temp
°C
App
Temp
°C
Dew
Point
°C
Rel
Hum
%
Delta-T
°C
Wind Press
QNH
hPa
Press
MSL
hPa
Rain since
9am
mm
Dir  Spd
km/h
Gust
km/h
Spd
kts
Gust
kts
06/11:30pm 9.5 6.7 6.9 84 1.2 NNW 11 13 6 7 1016.3 1016.2 0.0
06/11:00pm 9.5 7.3 6.4 81 1.4 NW 7 7 4 4 1016.5 1016.4 0.0
06/10:30pm 10.3 8.8 6.8 79 1.6 WNW 4 9 2 5 1016.6 1016.5 0.0
06/10:00pm 12.0 10.1 7.5 74 2.2 SW 7 9 4 5 1016.8 1016.7 0.0
06/09:30pm 12.2 10.2 7.1 71 2.5 SW 7 9 4 5 1016.8 1016.7 0.0
06/09:00pm 12.9 11.0 6.9 67 2.9 SSW 6 9 3 5 1016.7 1016.6 0.0
06/08:30pm 14.0 11.3 7.3 64 3.3 SSW 11 13 6 7 1016.6 1016.5 0.0
06/08:00pm 15.7 12.7 7.5 58 4.1 S 13 17 7 9 1016.1 1016.0 0.0
06/07:30pm 17.2 13.8 7.5 53 4.9 S 15 20 8 11 1016.0 1015.9 0.0
06/07:00pm 17.9 13.5 7.3 50 5.3 S 20 26 11 14 1015.9 1015.8 0.0
06/06:30pm 18.7 14.4 7.2 47 5.8 SSW 19 28 10 15 1015.3 1015.2 0.0
06/06:00pm 19.1 14.6 6.9 45 6.1 SSW 20 28 11 15 1015.2 1015.1 0.0
06/05:30pm 19.8 15.5 7.9 46 6.1 SSW 20 28 11 15 1015.1 1015.0 0.0
06/05:00pm 20.9 17.3 8.2 44 6.6 SSW 17 22 9 12 1015.0 1014.9 0.0
06/04:30pm 20.7 17.7 7.7 43 6.7 S 13 24 7 13 1015.0 1014.9 0.0
06/04:00pm 20.6 16.8 7.6 43 6.7 S 17 28 9 15 1015.1 1015.0 0.0
06/03:30pm 20.3 16.5 7.7 44 6.5 S 17 26 9 14 1015.5 1015.4 0.0
06/03:00pm 20.4 16.4 8.4 46 6.3 SSW 19 26 10 14 1015.9 1015.8 0.0
06/02:30pm 20.4 17.5 8.1 45 6.4 S 13 22 7 12 1015.6 1015.5 0.0
06/02:00pm 20.0 15.8 8.4 47 6.1 S 20 28 11 15 1015.9 1015.8 0.0
06/01:30pm 20.0 15.9 8.0 46 6.2 SE 19 24 10 13 1015.8 1015.7 0.0
06/01:00pm 19.4 15.6 7.5 46 6.1 ESE 17 26 9 14 1015.8 1015.7 0.0
06/12:30pm 19.0 15.3 7.8 48 5.7 ESE 17 28 9 15 1015.9 1015.8 0.0
06/12:00pm 18.9 16.0 8.0 49 5.6 SSE 13 22 7 12 1016.1 1016.0 0.0
06/11:30am 19.2 17.0 7.9 48 5.8 SSE 9 19 5 10 1016.2 1016.1 0.0
06/11:00am 18.6 16.1 8.0 50 5.4 SSW 11 20 6 11 1016.1 1016.0 0.0
06/10:30am 18.8 16.6 7.9 49 5.6 WSW 9 17 5 9 1016.3 1016.2 0.0
06/10:00am 18.3 16.4 7.4 49 5.5 SSE 7 13 4 7 1016.3 1016.2 0.0
06/09:30am 18.0 15.6 8.8 55 4.8 SSE 11 17 6 9 1016.4 1016.3 0.0
06/09:00am 16.8 15.1 8.5 58 4.2 SSW 7 15 4 8 1016.4 1016.3 0.0
06/08:30am 16.8 15.4 8.8 59 4.1 SSE 6 13 3 7 1016.6 1016.5 0.0
06/08:00am 14.9 14.8 9.5 70 2.8 CALM 0 0 0 0 1016.2 1016.1 0.0
06/07:30am 12.4 11.0 9.4 82 1.5 WNW 7 7 4 4 1016.1 1016.0 0.0
06/07:00am 11.2 9.6 8.6 84 1.3 NW 7 9 4 5 1015.8 1015.7 0.0
06/06:30am 10.3 9.4 7.7 84 1.3 WSW 2 6 1 3 1015.5 1015.4 0.0
06/06:00am 10.7 8.9 7.8 82 1.4 W 7 9 4 5 1015.2 1015.1 0.0
06/05:30am 10.5 8.6 7.7 83 1.4 WNW 7 9 4 5 1014.4 1014.3 0.0
06/05:00am 11.0 10.1 7.9 81 1.5 NW 2 7 1 4 1014.2 1014.1 0.0
06/04:30am 11.7 10.0 8.4 80 1.6 WNW 7 9 4 5 1014.2 1014.1 0.0
06/04:00am 11.7 9.2 8.2 79 1.7 W 11 11 6 6 1014.4 1014.3 0.0
06/03:30am 11.7 9.5 8.0 78 1.8 W 9 11 5 6 1014.3 1014.2 0.0
06/03:00am 12.1 10.0 8.4 78 1.8 WSW 9 11 5 6 1013.8 1013.7 0.0
06/02:30am 12.2 10.6 8.7 79 1.7 SW 7 11 4 6 1013.7 1013.6 0.0
06/02:00am 12.1 11.7 8.4 78 1.8 CALM 0 6 0 3 1014.1 1014.0 0.0
06/01:30am 12.4 10.7 8.5 77 1.9 WSW 7 9 4 5 1014.4 1014.3 0.0
06/01:00am 12.2 10.2 8.5 78 1.8 WSW 9 11 5 6 1014.8 1014.7 0.0
06/12:30am 12.3 10.7 8.2 76 2.0 SW 6 9 3 5 1014.3 1014.2 0.0
06/12:00am 12.8 10.7 8.3 74 2.2 SW 9 11 5 6 1014.8 1014.7 0.0
 
Date/Time
CDT
Temp
°C
App
Temp
°C
Dew
Point
°C
Rel
Hum
%
Delta-T
°C
Wind Press
QNH
hPa
Press
MSL
hPa
Rain since
9am
mm
Dir  Spd
km/h
Gust
km/h
Spd
kts
Gust
kts
05/11:30pm 12.9 11.2 8.4 74 2.2 SW 7 11 4 6 1014.9 1014.8 0.0
05/11:00pm 13.0 11.2 8.1 72 2.4 SW 7 7 4 4 1015.5 1015.4 0.0
05/10:30pm 13.4 11.6 8.0 70 2.7 WSW 7 9 4 5 1015.5 1015.4 0.0
05/10:00pm 13.9 12.1 8.1 68 2.9 SW 7 9 4 5 1015.4 1015.3 0.0
05/09:30pm 14.0 12.3 8.2 68 2.9 SW 7 11 4 6 1014.9 1014.8 0.0
05/09:00pm 14.3 12.5 8.0 66 3.1 SW 7 11 4 6 1014.5 1014.4 0.0
05/08:30pm 14.6 11.6 7.6 63 3.5 S 13 19 7 10 1014.5 1014.4 0.0
05/08:00pm 15.1 11.8 8.1 63 3.5 S 15 20 8 11 1013.7 1013.6 0.0
05/07:30pm 15.4 11.2 8.4 63 3.5 SSE 20 28 11 15 1014.0 1013.9 0.0
05/07:00pm 16.0 12.4 8.5 61 3.8 S 17 22 9 12 1014.8 1014.7 0.0
05/06:30pm 16.5 12.5 8.2 58 4.2 S 19 26 10 14 1013.9 1013.8 0.0

Latest Capital City Observations: Canberra | Sydney | Melbourne | Brisbane | Adelaide | Perth | Hobart | Darwin

Other Formats:

Comma delimited format used in spreadsheet applications
http://www.bom.gov.au/fwo/IDS60901/IDS60901.94814.axf

JavaScript Object Notation format (JSON) in row-major order
http://www.bom.gov.au/fwo/IDS60901/IDS60901.94814.json